createdAt,value
2023-02-22T00:00:50.117Z,100.00
2023-02-22T00:03:24.948Z,100.00
2023-02-22T00:05:58.282Z,100.00
2023-02-22T00:08:30.356Z,100.00
2023-02-22T00:10:58.521Z,100.00
2023-02-22T00:13:29.568Z,100.00
2023-02-22T00:15:58.096Z,100.00
2023-02-22T00:18:27.969Z,100.00
2023-02-22T00:20:59.837Z,100.00
2023-02-22T00:23:30.122Z,100.00
2023-02-22T00:25:59.513Z,100.00
2023-02-22T00:28:30.642Z,100.00
2023-02-22T00:30:59.871Z,100.00
2023-02-22T00:33:27.951Z,100.00
2023-02-22T00:35:55.798Z,100.00
2023-02-22T00:38:23.961Z,100.00
2023-02-22T00:40:52.437Z,100.00
2023-02-22T00:43:20.344Z,100.00
2023-02-22T00:45:50.420Z,100.00
2023-02-22T00:48:19.519Z,100.00
2023-02-22T00:50:49.236Z,100.00
2023-02-22T00:53:17.747Z,100.00
2023-02-22T00:55:45.647Z,100.00
2023-02-22T00:58:13.667Z,100.00
2023-02-22T01:00:43.741Z,100.00
2023-02-22T01:03:15.018Z,100.00
2023-02-22T01:05:43.933Z,100.00
2023-02-22T01:08:13.604Z,100.00
2023-02-22T01:10:41.688Z,100.00
2023-02-22T01:13:12.225Z,100.00
2023-02-22T01:15:41.850Z,100.00
2023-02-22T01:18:12.594Z,100.00
2023-02-22T01:20:40.701Z,100.00
2023-02-22T01:23:10.621Z,100.00
2023-02-22T01:25:38.803Z,100.00
2023-02-22T01:28:09.873Z,100.00
2023-02-22T01:30:38.321Z,100.00
2023-02-22T01:33:08.564Z,100.00
2023-02-22T01:35:40.802Z,100.00
2023-02-22T01:38:09.552Z,100.00
2023-02-22T01:40:39.683Z,100.00
2023-02-22T01:43:20.126Z,100.00
2023-02-22T01:45:58.268Z,100.00
2023-02-22T01:48:35.680Z,100.00
2023-02-22T01:51:10.774Z,100.00
2023-02-22T01:53:46.065Z,100.00
2023-02-22T01:56:16.166Z,100.00
2023-02-22T01:58:50.612Z,100.00
2023-02-22T02:01:21.392Z,100.00
2023-02-22T02:03:50.494Z,100.00
2023-02-22T02:06:20.559Z,100.00
2023-02-22T02:08:56.054Z,100.00
2023-02-22T02:11:25.977Z,100.00
2023-02-22T02:13:57.162Z,100.00
2023-02-22T02:16:27.506Z,100.00
2023-02-22T02:18:55.974Z,100.00
2023-02-22T02:21:49.841Z,100.00
2023-02-22T02:25:05.065Z,100.00
2023-02-22T02:27:48.618Z,100.00
2023-02-22T02:30:46.982Z,100.00
2023-02-22T02:33:22.114Z,100.00
2023-02-22T02:35:58.663Z,100.00
2023-02-22T02:38:35.273Z,100.00
2023-02-22T02:41:10.745Z,100.00
2023-02-22T02:43:43.867Z,100.00
2023-02-22T02:46:16.724Z,100.00
2023-02-22T02:48:54.701Z,100.00
2023-02-22T02:51:28.718Z,100.00
2023-02-22T02:53:57.777Z,100.00
2023-02-22T02:56:25.905Z,100.00
2023-02-22T02:58:55.625Z,100.00
2023-02-22T03:01:40.854Z,100.00
2023-02-22T03:04:24.468Z,100.00
2023-02-22T03:07:08.731Z,100.00
2023-02-22T03:09:49.057Z,100.00
2023-02-22T03:12:29.263Z,100.00
2023-02-22T03:15:09.858Z,100.00
2023-02-22T03:17:46.767Z,100.00
2023-02-22T03:20:23.511Z,100.00
2023-02-22T03:22:59.396Z,100.00
2023-02-22T03:25:30.593Z,100.00
2023-02-22T03:28:04.631Z,100.00
2023-02-22T03:30:39.291Z,100.00
2023-02-22T03:33:15.612Z,100.00
2023-02-22T03:35:49.511Z,100.00
2023-02-22T03:38:21.391Z,100.00
2023-02-22T03:40:52.377Z,100.00
2023-02-22T03:43:26.166Z,100.00
2023-02-22T03:45:59.470Z,100.00
2023-02-22T03:48:37.363Z,100.00
2023-02-22T03:51:08.459Z,100.00
2023-02-22T03:53:37.415Z,100.00
2023-02-22T03:56:10.498Z,100.00
2023-02-22T03:58:40.633Z,100.00
2023-02-22T04:01:08.707Z,100.00
2023-02-22T04:03:36.522Z,100.00
2023-02-22T04:06:05.278Z,100.00
2023-02-22T04:08:35.233Z,100.00
2023-02-22T04:11:03.685Z,100.00
2023-02-22T04:13:32.431Z,100.00
2023-02-22T04:16:00.817Z,100.00
2023-02-22T04:18:28.719Z,100.00
2023-02-22T04:20:57.124Z,100.00
2023-02-22T04:23:37.084Z,100.00
2023-02-22T04:26:05.924Z,100.00
2023-02-22T04:28:34.002Z,100.00
2023-02-22T04:31:14.763Z,100.00
2023-02-22T04:33:42.912Z,100.00
2023-02-22T04:36:16.004Z,100.00
2023-02-22T04:38:46.281Z,100.00
2023-02-22T04:41:14.782Z,100.00
2023-02-22T04:43:42.891Z,100.00
2023-02-22T04:46:29.523Z,100.00
2023-02-22T04:48:58.706Z,100.00
2023-02-22T04:51:29.747Z,100.00
2023-02-22T04:54:02.871Z,100.00
2023-02-22T04:56:33.120Z,100.00
2023-02-22T04:59:01.075Z,100.00
2023-02-22T05:01:33.572Z,100.00
2023-02-22T05:04:04.027Z,100.00
2023-02-22T05:06:32.132Z,100.00
2023-02-22T05:09:00.028Z,100.00
2023-02-22T05:11:29.278Z,100.00
2023-02-22T05:13:57.336Z,100.00
2023-02-22T05:16:25.333Z,100.00
2023-02-22T05:18:53.424Z,100.00
2023-02-22T05:21:21.415Z,100.00
2023-02-22T05:23:49.423Z,100.00
2023-02-22T05:26:17.452Z,100.00
2023-02-22T05:28:46.727Z,100.00
2023-02-22T05:31:14.835Z,100.00
2023-02-22T05:33:43.080Z,100.00
2023-02-22T05:36:11.489Z,100.00
2023-02-22T05:38:43.243Z,100.00
2023-02-22T05:41:12.370Z,100.00
2023-02-22T05:43:40.520Z,100.00
2023-02-22T05:46:09.912Z,100.00
2023-02-22T05:48:39.343Z,100.00
2023-02-22T05:51:09.648Z,100.00
2023-02-22T05:53:37.872Z,100.00
2023-02-22T05:56:06.467Z,100.00
2023-02-22T05:58:34.386Z,100.00
2023-02-22T06:01:03.432Z,100.00
2023-02-22T06:03:32.905Z,100.00
2023-02-22T06:06:00.816Z,100.00
2023-02-22T06:08:28.667Z,100.00
2023-02-22T06:10:56.562Z,100.00
2023-02-22T06:13:24.408Z,100.00
2023-02-22T06:15:52.261Z,100.00
2023-02-22T06:18:20.392Z,100.00
2023-02-22T06:20:50.845Z,100.00
2023-02-22T06:23:18.935Z,100.00
2023-02-22T06:25:46.834Z,100.00
2023-02-22T06:28:15.657Z,100.00
2023-02-22T06:30:43.773Z,100.00
2023-02-22T06:33:12.328Z,100.00
2023-02-22T06:35:40.289Z,100.00
2023-02-22T06:38:10.147Z,100.00
2023-02-22T06:40:38.031Z,100.00
2023-02-22T06:43:06.006Z,100.00
2023-02-22T06:45:33.973Z,100.00
2023-02-22T06:48:01.825Z,100.00
2023-02-22T06:50:31.634Z,100.00
2023-02-22T06:53:00.068Z,100.00
2023-02-22T06:55:31.645Z,100.00
2023-02-22T06:58:00.045Z,100.00
2023-02-22T07:00:30.002Z,100.00
2023-02-22T07:02:59.251Z,100.00
2023-02-22T07:05:28.771Z,100.00
2023-02-22T07:08:03.475Z,100.00
2023-02-22T07:10:33.935Z,100.00
2023-02-22T07:13:02.268Z,100.00
2023-02-22T07:15:32.590Z,100.00
2023-02-22T07:18:00.855Z,100.00
2023-02-22T07:20:31.013Z,100.00
2023-02-22T07:22:58.868Z,100.00
2023-02-22T07:25:27.241Z,100.00
2023-02-22T07:27:56.556Z,100.00
2023-02-22T07:30:27.988Z,100.00
2023-02-22T07:32:56.500Z,100.00
2023-02-22T07:35:26.625Z,100.00
2023-02-22T07:37:55.955Z,100.00
2023-02-22T07:40:25.361Z,100.00
2023-02-22T07:42:57.138Z,100.00
2023-02-22T07:45:26.620Z,100.00
2023-02-22T07:47:55.139Z,100.00
2023-02-22T07:50:27.488Z,100.00
2023-02-22T07:52:58.298Z,100.00
2023-02-22T07:55:28.292Z,100.00
2023-02-22T07:57:59.677Z,100.00
2023-02-22T08:00:29.618Z,100.00
2023-02-22T08:02:57.995Z,100.00
2023-02-22T08:05:27.979Z,100.00
2023-02-22T08:07:55.813Z,100.00
2023-02-22T08:10:25.596Z,100.00
2023-02-22T08:12:54.341Z,100.00
2023-02-22T08:15:28.462Z,100.00
2023-02-22T08:17:57.387Z,100.00
2023-02-22T08:20:25.740Z,100.00
2023-02-22T08:22:54.010Z,100.00
2023-02-22T08:25:25.283Z,100.00
2023-02-22T08:27:58.629Z,100.00
2023-02-22T08:30:29.111Z,100.00
2023-02-22T08:32:58.097Z,100.00
2023-02-22T08:35:27.493Z,100.00
2023-02-22T08:37:58.556Z,100.00
2023-02-22T08:40:29.222Z,100.00
2023-02-22T08:42:57.086Z,100.00
2023-02-22T08:45:25.257Z,100.00
2023-02-22T08:47:54.503Z,100.00
2023-02-22T08:50:24.593Z,99.55
2023-02-22T08:52:53.213Z,100.00
2023-02-22T08:55:22.505Z,99.90
2023-02-22T08:57:51.805Z,100.00
2023-02-22T09:02:48.921Z,97.92
2023-02-22T09:05:18.341Z,96.87
2023-02-22T09:07:46.549Z,95.70
2023-02-22T09:10:17.825Z,93.48
2023-02-22T09:12:45.764Z,93.68
2023-02-22T09:15:13.913Z,94.07
2023-02-22T09:17:41.863Z,93.54
2023-02-22T09:20:12.291Z,92.10
2023-02-22T09:22:41.815Z,91.50
2023-02-22T09:25:16.757Z,90.17
2023-02-22T09:27:45.179Z,90.38
2023-02-22T09:30:19.180Z,89.30
2023-02-22T09:32:47.348Z,89.54
2023-02-22T09:35:15.393Z,89.16
2023-02-22T09:37:45.226Z,86.55
2023-02-22T09:40:24.823Z,86.29
2023-02-22T09:43:04.878Z,85.63
2023-02-22T09:45:38.794Z,83.92
2023-02-22T09:48:21.262Z,84.55
2023-02-22T09:50:52.525Z,84.82
2023-02-22T09:53:30.308Z,83.77
2023-02-22T09:56:03.515Z,84.70
2023-02-22T09:58:34.384Z,84.67
2023-02-22T10:01:19.837Z,83.15
2023-02-22T10:03:54.502Z,82.33
2023-02-22T10:06:25.585Z,81.18
2023-02-22T10:09:00.916Z,78.81
2023-02-22T10:11:42.602Z,76.08
2023-02-22T10:14:30.746Z,76.97
2023-02-22T10:17:06.210Z,75.25
2023-02-22T10:19:39.529Z,74.49
2023-02-22T10:22:37.286Z,72.28
2023-02-22T10:25:13.758Z,74.84
2023-02-22T10:27:47.839Z,73.73
2023-02-22T10:30:24.907Z,72.42
2023-02-22T10:32:59.737Z,73.60
2023-02-22T10:35:30.876Z,72.82
2023-02-22T10:38:05.340Z,72.43
2023-02-22T10:40:34.740Z,74.22
2023-02-22T10:43:04.960Z,73.63
2023-02-22T10:45:35.854Z,74.24
2023-02-22T10:48:11.484Z,72.80
2023-02-22T10:50:41.496Z,70.84
2023-02-22T10:53:10.529Z,68.73
2023-02-22T10:56:10.142Z,69.45
2023-02-22T10:58:47.950Z,68.21
2023-02-22T11:01:26.177Z,65.84
2023-02-22T11:03:59.153Z,62.92
2023-02-22T11:06:27.470Z,60.69
2023-02-22T11:09:06.485Z,61.39
2023-02-22T11:11:35.813Z,60.66
2023-02-22T11:14:06.602Z,59.73
2023-02-22T11:16:38.249Z,60.03
2023-02-22T11:19:14.075Z,59.47
2023-02-22T11:21:42.384Z,58.60
2023-02-22T11:24:12.637Z,57.09
2023-02-22T11:26:45.060Z,58.30
2023-02-22T11:29:21.307Z,57.90
2023-02-22T11:31:50.351Z,56.18
2023-02-22T11:34:31.518Z,56.72
2023-02-22T11:37:17.712Z,57.02
2023-02-22T11:39:46.654Z,57.68
2023-02-22T11:42:27.608Z,57.80
2023-02-22T11:45:10.923Z,58.67
2023-02-22T11:47:49.413Z,58.75
2023-02-22T11:50:28.879Z,58.12
2023-02-22T11:53:10.135Z,57.94
2023-02-22T11:55:46.847Z,57.04
2023-02-22T11:58:34.318Z,57.18
2023-02-22T12:01:10.087Z,57.17
2023-02-22T12:04:16.102Z,56.06
2023-02-22T12:06:52.008Z,56.00
2023-02-22T12:09:27.301Z,56.38
2023-02-22T12:12:07.516Z,56.02
2023-02-22T12:14:45.065Z,56.45
2023-02-22T12:17:24.490Z,56.11
2023-02-22T12:19:58.761Z,56.34
2023-02-22T12:22:30.591Z,57.08
2023-02-22T12:25:09.484Z,57.27
2023-02-22T12:27:42.870Z,56.71
2023-02-22T12:30:19.191Z,57.82
2023-02-22T12:32:51.853Z,57.08
2023-02-22T12:35:24.690Z,57.14
2023-02-22T12:38:01.826Z,56.35
2023-02-22T12:40:36.536Z,55.90
2023-02-22T12:43:11.935Z,56.28
2023-02-22T12:45:44.208Z,55.82
2023-02-22T12:48:27.381Z,55.98
2023-02-22T12:50:59.260Z,55.87
2023-02-22T12:53:32.353Z,55.97
2023-02-22T12:56:16.668Z,54.83
2023-02-22T12:58:50.819Z,53.39
2023-02-22T13:01:23.757Z,53.56
2023-02-22T13:03:51.829Z,53.73
2023-02-22T13:06:31.207Z,54.50
2023-02-22T13:09:11.298Z,53.18
2023-02-22T13:11:44.724Z,53.58
2023-02-22T13:14:30.081Z,53.42
2023-02-22T13:17:06.990Z,54.05
2023-02-22T13:19:44.141Z,53.16
2023-02-22T13:22:20.082Z,54.19
2023-02-22T13:24:59.619Z,53.74
2023-02-22T13:27:33.020Z,54.30
2023-02-22T13:30:02.515Z,54.17
2023-02-22T13:32:47.970Z,53.84
2023-02-22T13:35:27.464Z,53.42
2023-02-22T13:38:16.618Z,53.04
2023-02-22T13:41:12.858Z,53.57
2023-02-22T13:44:07.947Z,51.82
2023-02-22T13:46:50.819Z,52.12
2023-02-22T13:49:48.164Z,51.72
2023-02-22T13:52:21.215Z,51.29
2023-02-22T13:54:54.551Z,50.93
2023-02-22T13:57:25.761Z,51.09
2023-02-22T14:00:24.415Z,51.40
2023-02-22T14:03:06.808Z,49.79
2023-02-22T14:05:50.947Z,50.10
2023-02-22T14:08:43.791Z,49.26
2023-02-22T14:11:57.248Z,49.63
2023-02-22T14:14:25.772Z,49.71
2023-02-22T14:17:23.903Z,49.71
2023-02-22T14:20:20.860Z,50.46
2023-02-22T14:22:53.163Z,51.41
2023-02-22T14:25:37.479Z,51.47
2023-02-22T14:28:07.599Z,51.91
2023-02-22T14:30:38.864Z,52.53
2023-02-22T14:33:42.070Z,52.35
2023-02-22T14:36:11.284Z,52.26
2023-02-22T14:38:41.961Z,52.89
2023-02-22T14:41:10.275Z,52.97
2023-02-22T14:43:39.977Z,53.24
2023-02-22T14:46:13.600Z,54.35
2023-02-22T14:48:42.980Z,54.30
2023-02-22T14:51:21.937Z,54.37
2023-02-22T14:53:55.045Z,55.06
2023-02-22T14:56:26.303Z,55.62
2023-02-22T14:59:00.228Z,56.00
2023-02-22T15:01:47.342Z,56.17
2023-02-22T15:04:23.030Z,55.80
2023-02-22T15:06:51.571Z,56.03
2023-02-22T15:09:27.658Z,55.99
2023-02-22T15:12:14.709Z,56.03
2023-02-22T15:14:47.571Z,56.45
2023-02-22T15:17:20.845Z,56.81
2023-02-22T15:19:50.079Z,57.14
2023-02-22T15:22:23.577Z,57.21
2023-02-22T15:25:00.283Z,58.17
2023-02-22T15:27:29.263Z,58.45
2023-02-22T15:30:04.391Z,58.16
2023-02-22T15:32:36.275Z,58.31
2023-02-22T15:35:16.516Z,58.55
2023-02-22T15:37:45.492Z,58.92
2023-02-22T15:40:20.878Z,59.14
2023-02-22T15:42:50.397Z,59.04
2023-02-22T15:45:21.028Z,59.35
2023-02-22T15:47:50.852Z,60.04
2023-02-22T15:50:23.661Z,60.00
2023-02-22T15:52:57.994Z,60.41
2023-02-22T15:55:30.834Z,60.44
2023-02-22T15:58:02.230Z,60.29
2023-02-22T16:00:36.935Z,60.92
2023-02-22T16:03:06.167Z,60.79
2023-02-22T16:05:40.200Z,62.07
2023-02-22T16:08:16.690Z,62.39
2023-02-22T16:10:54.279Z,62.23
2023-02-22T16:13:32.960Z,62.18
2023-02-22T16:16:03.125Z,63.29
2023-02-22T16:18:34.399Z,63.22
2023-02-22T16:21:08.060Z,63.17
2023-02-22T16:23:45.854Z,63.67
2023-02-22T16:26:28.636Z,63.52
2023-02-22T16:28:58.890Z,63.37
2023-02-22T16:31:28.538Z,64.21
2023-02-22T16:33:56.550Z,64.83
2023-02-22T16:36:38.686Z,65.59
2023-02-22T16:39:08.395Z,66.70
2023-02-22T16:41:37.723Z,67.35
2023-02-22T16:44:07.654Z,68.29
2023-02-22T16:46:36.660Z,68.84
2023-02-22T16:49:05.017Z,69.23
2023-02-22T16:51:39.799Z,69.96
2023-02-22T16:54:12.408Z,69.96
2023-02-22T16:56:42.480Z,71.60
2023-02-22T16:59:15.006Z,71.07
2023-02-22T17:01:43.442Z,72.03
2023-02-22T17:04:15.859Z,72.81
2023-02-22T17:06:44.116Z,73.15
2023-02-22T17:09:11.971Z,73.87
2023-02-22T17:11:41.365Z,75.32
2023-02-22T17:14:09.701Z,75.16
2023-02-22T17:16:37.970Z,74.52
2023-02-22T17:19:11.258Z,74.88
2023-02-22T17:21:40.164Z,74.28
2023-02-22T17:24:08.140Z,74.59
2023-02-22T17:26:37.111Z,74.53
2023-02-22T17:29:06.429Z,75.02
2023-02-22T17:31:34.978Z,76.16
2023-02-22T17:34:04.985Z,75.79
2023-02-22T17:36:34.210Z,75.96
2023-02-22T17:39:02.970Z,75.75
2023-02-22T17:41:30.886Z,76.17
2023-02-22T17:43:59.049Z,76.86
2023-02-22T17:46:28.293Z,77.41
2023-02-22T17:48:56.177Z,78.42
2023-02-22T17:51:26.253Z,78.80
2023-02-22T17:53:54.344Z,78.53
2023-02-22T17:56:22.667Z,78.82
2023-02-22T17:58:54.099Z,79.12
2023-02-22T18:01:27.108Z,79.38
2023-02-22T18:03:58.573Z,78.85
2023-02-22T18:06:28.569Z,79.15
2023-02-22T18:08:57.860Z,79.92
2023-02-22T18:11:27.494Z,79.90
2023-02-22T18:13:55.869Z,80.05
2023-02-22T18:16:25.461Z,79.61
2023-02-22T18:18:54.680Z,79.69
2023-02-22T18:21:26.690Z,79.84
2023-02-22T18:23:55.168Z,80.51
2023-02-22T18:26:25.320Z,79.91
2023-02-22T18:28:54.070Z,80.55
2023-02-22T18:31:23.465Z,81.17
2023-02-22T18:33:53.327Z,80.94
2023-02-22T18:36:23.778Z,82.48
2023-02-22T18:38:54.138Z,82.65
2023-02-22T18:41:25.631Z,83.27
2023-02-22T18:43:55.184Z,83.95
2023-02-22T18:46:25.205Z,83.76
2023-02-22T18:48:55.488Z,83.53
2023-02-22T18:51:25.716Z,83.38
2023-02-22T18:53:59.734Z,83.10
2023-02-22T18:56:30.118Z,83.23
2023-02-22T18:59:01.053Z,83.46
2023-02-22T19:01:29.699Z,84.28
2023-02-22T19:03:57.542Z,84.10
2023-02-22T19:06:26.847Z,84.99
2023-02-22T19:08:54.711Z,85.26
2023-02-22T19:11:24.517Z,85.27
2023-02-22T19:13:55.670Z,85.35
2023-02-22T19:16:25.243Z,85.76
2023-02-22T19:18:57.289Z,87.39
2023-02-22T19:21:28.538Z,87.33
2023-02-22T19:24:01.299Z,88.00
2023-02-22T19:26:30.125Z,87.56
2023-02-22T19:28:59.998Z,87.39
2023-02-22T19:31:31.554Z,87.23
2023-02-22T19:34:01.886Z,87.61
2023-02-22T19:36:31.438Z,87.42
2023-02-22T19:39:01.558Z,86.91
2023-02-22T19:41:30.201Z,87.24
2023-02-22T19:43:58.814Z,87.49
2023-02-22T19:46:26.875Z,86.52
2023-02-22T19:48:56.399Z,87.36
2023-02-22T19:51:29.363Z,86.97
2023-02-22T19:53:59.952Z,86.88
2023-02-22T19:56:28.437Z,87.23
2023-02-22T19:58:58.278Z,86.84
2023-02-22T20:01:29.117Z,86.85
2023-02-22T20:03:59.904Z,86.49
2023-02-22T20:06:31.981Z,86.59
2023-02-22T20:09:02.528Z,86.74
2023-02-22T20:11:30.457Z,87.24
2023-02-22T20:13:58.345Z,87.26
2023-02-22T20:16:26.880Z,88.17
2023-02-22T20:18:56.013Z,88.87
2023-02-22T20:21:30.716Z,88.12
2023-02-22T20:23:59.346Z,87.73
2023-02-22T20:26:31.021Z,87.93
2023-02-22T20:29:00.310Z,88.04
2023-02-22T20:31:29.571Z,88.69
2023-02-22T20:33:59.831Z,88.61
2023-02-22T20:36:28.511Z,89.08
2023-02-22T20:38:58.513Z,89.88
2023-02-22T20:41:29.903Z,90.38
2023-02-22T20:43:58.301Z,90.66
2023-02-22T20:46:28.260Z,90.51
2023-02-22T20:48:57.036Z,90.61
2023-02-22T20:51:25.496Z,90.64
2023-02-22T20:53:54.139Z,89.88
2023-02-22T20:56:24.681Z,89.81
2023-02-22T20:58:53.991Z,90.07
2023-02-22T21:01:22.535Z,90.61
2023-02-22T21:03:51.464Z,92.01
2023-02-22T21:06:21.680Z,92.41
2023-02-22T21:09:21.907Z,91.54
2023-02-22T21:11:50.411Z,91.23
2023-02-22T21:14:20.223Z,91.93
2023-02-22T21:16:49.581Z,92.57
2023-02-22T21:19:25.502Z,93.25
2023-02-22T21:21:55.912Z,94.94
2023-02-22T21:24:24.549Z,94.42
2023-02-22T21:26:53.030Z,95.17
2023-02-22T21:29:44.227Z,95.84
2023-02-22T21:32:13.737Z,97.49
2023-02-22T21:34:42.028Z,98.83
2023-02-22T21:37:09.882Z,98.68
2023-02-22T21:39:38.777Z,99.21
2023-02-22T21:42:07.306Z,100.00
2023-02-22T21:44:35.273Z,100.00
2023-02-22T21:47:04.474Z,100.00
2023-02-22T21:49:32.370Z,100.00
2023-02-22T21:52:00.270Z,100.00
2023-02-22T21:54:28.742Z,100.00
2023-02-22T21:56:56.717Z,100.00
2023-02-22T21:59:24.830Z,100.00
2023-02-22T22:01:55.820Z,100.00
2023-02-22T22:04:27.945Z,100.00
2023-02-22T22:06:57.663Z,100.00
2023-02-22T22:09:29.103Z,100.00
2023-02-22T22:11:59.083Z,100.00
2023-02-22T22:14:28.101Z,100.00
2023-02-22T22:16:58.672Z,100.00
2023-02-22T22:19:29.118Z,100.00
2023-02-22T22:21:57.453Z,100.00
2023-02-22T22:24:25.599Z,100.00
2023-02-22T22:26:55.338Z,100.00
2023-02-22T22:29:24.612Z,100.00
2023-02-22T22:31:52.936Z,100.00
2023-02-22T22:34:24.283Z,100.00
2023-02-22T22:36:53.579Z,100.00
2023-02-22T22:39:21.647Z,100.00
2023-02-22T22:41:49.594Z,100.00
2023-02-22T22:44:22.091Z,100.00
2023-02-22T22:46:53.513Z,100.00
2023-02-22T22:49:23.530Z,100.00
2023-02-22T22:51:53.470Z,100.00
2023-02-22T22:54:21.653Z,100.00
2023-02-22T22:56:49.540Z,100.00
2023-02-22T22:59:17.959Z,100.00
2023-02-22T23:01:45.899Z,100.00
2023-02-22T23:04:16.831Z,100.00
2023-02-22T23:06:46.634Z,100.00
2023-02-22T23:09:18.958Z,100.00
2023-02-22T23:11:50.573Z,100.00
2023-02-22T23:14:21.275Z,100.00
2023-02-22T23:16:50.134Z,100.00
2023-02-22T23:19:19.155Z,100.00
2023-02-22T23:21:47.913Z,100.00
2023-02-22T23:24:20.867Z,100.00
2023-02-22T23:26:49.478Z,100.00
2023-02-22T23:29:18.951Z,100.00
2023-02-22T23:31:48.354Z,100.00
2023-02-22T23:34:17.178Z,100.00
2023-02-22T23:36:45.152Z,100.00
2023-02-22T23:39:14.212Z,100.00
2023-02-22T23:41:43.808Z,100.00
2023-02-22T23:44:17.585Z,100.00
2023-02-22T23:46:48.203Z,100.00
2023-02-22T23:49:20.053Z,100.00
2023-02-22T23:51:48.209Z,100.00
2023-02-22T23:54:19.205Z,100.00
2023-02-22T23:56:56.318Z,100.00
2023-02-22T23:59:26.012Z,100.00
